Time;durP1;ratioP1;P1;durP2;ratioP2;P2;SDS_P1;SDS_P2;PMS_P1;PMS_P2;Temp;Humidity;BMP_temperature;BMP_pressure;BME280_temperature;BME280_humidity;BME280_pressure;Samples;Min_cycle;Max_cycle;Signal;HPM_P1;HPM_P2
2023/08/20 00:02:07;;;;;;;5.22;3.70;;;;;;;;;;5018190;28;20396;-63
2023/08/20 00:04:35;;;;;;;5.53;3.75;;;;;;;;;;5034381;28;20163;-63
2023/08/20 00:07:01;;;;;;;6.13;3.88;;;;;;;;;;5034186;28;20021;-63
2023/08/20 00:09:27;;;;;;;4.95;3.50;;;;;;;;;;5034737;28;20048;-63
2023/08/20 00:11:52;;;;;;;6.25;3.80;;;;;;;;;;5018058;28;20503;-62
2023/08/20 00:14:18;;;;;;;5.45;4.10;;;;;;;;;;5017728;28;20029;-63
2023/08/20 00:16:43;;;;;;;5.15;3.60;;;;;;;;;;5017884;28;20033;-63
2023/08/20 00:19:09;;;;;;;5.53;3.50;;;;;;;;;;5017679;28;20029;-64
2023/08/20 00:21:35;;;;;;;6.30;3.67;;;;;;;;;;5017599;28;20032;-63
2023/08/20 00:24:00;;;;;;;4.57;3.58;;;;;;;;;;5001174;28;20029;-62
2023/08/20 00:26:26;;;;;;;5.70;3.90;;;;;;;;;;5017774;28;20018;-62
2023/08/20 00:28:51;;;;;;;4.53;3.40;;;;;;;;;;5017704;28;20029;-63
2023/08/20 00:31:17;;;;;;;5.43;3.40;;;;;;;;;;5017386;28;20028;-63
2023/08/20 00:33:43;;;;;;;4.47;3.55;;;;;;;;;;5017636;28;20112;-63
2023/08/20 00:36:08;;;;;;;4.78;3.53;;;;;;;;;;5016528;28;20026;-63
2023/08/20 00:38:34;;;;;;;4.35;3.58;;;;;;;;;;5017467;28;20022;-62
2023/08/20 00:40:59;;;;;;;5.20;3.28;;;;;;;;;;5016724;28;20127;-63
2023/08/20 00:43:25;;;;;;;4.53;3.63;;;;;;;;;;5033781;28;20025;-63
2023/08/20 00:45:50;;;;;;;6.60;3.78;;;;;;;;;;5018196;28;20028;-62
2023/08/20 00:48:16;;;;;;;5.03;3.90;;;;;;;;;;5017363;28;20091;-63
2023/08/20 00:50:41;;;;;;;4.68;3.40;;;;;;;;;;5017134;28;20056;-63
2023/08/20 00:53:08;;;;;;;5.45;3.80;;;;;;;;;;5017349;28;20430;-63
2023/08/20 00:55:33;;;;;;;6.00;3.50;;;;;;;;;;5017198;28;20076;-62
2023/08/20 00:57:59;;;;;;;5.07;3.72;;;;;;;;;;5017216;28;20029;-63
2023/08/20 01:00:25;;;;;;;4.10;3.20;;;;;;;;;;5032995;28;20075;-63
2023/08/20 01:02:51;;;;;;;5.05;3.35;;;;;;;;;;5017406;28;20087;-62
2023/08/20 01:05:17;;;;;;;6.28;3.55;;;;;;;;;;5033398;28;20026;-62
2023/08/20 01:08:02;;;;;;;6.10;3.30;;;;;;;;;;5033303;28;20025;-63
2023/08/20 01:10:39;;;;;;;4.93;3.10;;;;;;;;;;5015793;28;20049;-64
2023/08/20 01:13:05;;;;;;;4.55;3.30;;;;;;;;;;5017191;28;20025;-62
2023/08/20 01:15:31;;;;;;;4.35;3.00;;;;;;;;;;5032902;28;20479;-64
2023/08/20 01:17:56;;;;;;;4.93;3.60;;;;;;;;;;5016318;28;20021;-63
2023/08/20 01:20:24;;;;;;;6.35;3.40;;;;;;;;;;5016571;28;20112;-63
2023/08/20 01:23:14;;;;;;;4.47;3.35;;;;;;;;;;5032896;28;20053;-62
2023/08/20 01:25:45;;;;;;;4.85;3.38;;;;;;;;;;5016775;28;20022;-63
2023/08/20 01:28:27;;;;;;;4.00;3.17;;;;;;;;;;5016326;28;20071;-63
2023/08/20 01:30:54;;;;;;;5.55;3.42;;;;;;;;;;5016493;28;20025;-63
2023/08/20 01:33:20;;;;;;;5.18;3.00;;;;;;;;;;5032573;28;20026;-63
2023/08/20 01:35:45;;;;;;;4.18;3.08;;;;;;;;;;5016555;28;20033;-63
2023/08/20 01:38:11;;;;;;;5.72;3.00;;;;;;;;;;5016649;28;20029;-63
2023/08/20 01:40:36;;;;;;;5.22;3.20;;;;;;;;;;5016209;28;20503;-63
2023/08/20 01:43:02;;;;;;;4.57;3.40;;;;;;;;;;5016395;28;20017;-63
2023/08/20 01:45:27;;;;;;;5.65;2.90;;;;;;;;;;5016321;28;20060;-63
2023/08/20 01:47:53;;;;;;;6.15;3.30;;;;;;;;;;5015627;28;20116;-63
2023/08/20 01:50:18;;;;;;;5.35;3.13;;;;;;;;;;5016339;28;20048;-63
2023/08/20 01:52:44;;;;;;;3.88;3.10;;;;;;;;;;5016309;28;20021;-63
2023/08/20 01:55:12;;;;;;;5.10;3.30;;;;;;;;;;5016017;28;20321;-63
2023/08/20 01:57:37;;;;;;;6.30;3.28;;;;;;;;;;5016239;28;20034;-63
2023/08/20 02:00:05;;;;;;;5.78;3.40;;;;;;;;;;5016023;28;20037;-63
2023/08/20 02:02:33;;;;;;;5.65;3.17;;;;;;;;;;5032549;28;20029;-64
2023/08/20 02:05:00;;;;;;;5.65;3.30;;;;;;;;;;5031701;28;20029;-63
2023/08/20 02:07:25;;;;;;;7.57;3.20;;;;;;;;;;5032237;28;20105;-63
2023/08/20 02:09:50;;;;;;;5.78;3.28;;;;;;;;;;5016062;28;20037;-63
2023/08/20 02:12:16;;;;;;;4.22;2.67;;;;;;;;;;5016119;28;20041;-63
2023/08/20 02:14:41;;;;;;;5.88;3.08;;;;;;;;;;5015484;28;20024;-63
2023/08/20 02:17:08;;;;;;;6.22;3.00;;;;;;;;;;5015831;28;20059;-62
2023/08/20 02:19:33;;;;;;;7.00;3.15;;;;;;;;;;5031786;28;20038;-63
2023/08/20 02:21:59;;;;;;;4.68;2.92;;;;;;;;;;5016011;28;20083;-63
2023/08/20 02:24:24;;;;;;;4.95;3.20;;;;;;;;;;5015556;28;20021;-63
2023/08/20 02:26:50;;;;;;;5.88;3.20;;;;;;;;;;5015960;28;20034;-63
2023/08/20 02:29:15;;;;;;;4.90;2.60;;;;;;;;;;5015615;28;20112;-62
2023/08/20 02:31:41;;;;;;;6.22;3.00;;;;;;;;;;5015911;28;20018;-63
2023/08/20 02:34:06;;;;;;;4.82;3.00;;;;;;;;;;5015590;28;20033;-64
2023/08/20 02:36:32;;;;;;;5.40;2.80;;;;;;;;;;5015909;28;20025;-62
2023/08/20 02:38:57;;;;;;;5.13;3.00;;;;;;;;;;5015888;28;20017;-64
2023/08/20 02:41:23;;;;;;;6.90;3.08;;;;;;;;;;5032271;28;20044;-64
2023/08/20 02:43:48;;;;;;;5.20;3.03;;;;;;;;;;5015437;28;20030;-63
2023/08/20 02:46:14;;;;;;;5.30;3.10;;;;;;;;;;5015781;28;20057;-62
2023/08/20 02:48:40;;;;;;;5.20;2.78;;;;;;;;;;5032837;28;20387;-63
2023/08/20 02:51:06;;;;;;;4.45;2.90;;;;;;;;;;5015737;28;20029;-63
2023/08/20 02:53:32;;;;;;;5.55;2.60;;;;;;;;;;5031587;28;20094;-62
2023/08/20 02:55:57;;;;;;;4.78;2.70;;;;;;;;;;4996094;28;20191;-64
2023/08/20 02:58:23;;;;;;;4.40;2.80;;;;;;;;;;4997153;28;20114;-63
2023/08/20 03:00:48;;;;;;;5.15;3.00;;;;;;;;;;5015693;28;20218;-63
2023/08/20 03:03:13;;;;;;;4.68;2.58;;;;;;;;;;5015935;28;20026;-62
2023/08/20 03:05:39;;;;;;;4.68;2.92;;;;;;;;;;5015814;28;20124;-63
2023/08/20 03:08:05;;;;;;;3.70;2.47;;;;;;;;;;4999577;28;20029;-63
2023/08/20 03:10:34;;;;;;;5.68;2.90;;;;;;;;;;4999266;28;20029;-63
2023/08/20 03:13:00;;;;;;;4.05;2.67;;;;;;;;;;5000038;28;20121;-63
2023/08/20 03:15:26;;;;;;;6.28;2.83;;;;;;;;;;5014864;28;20025;-62
2023/08/20 03:17:52;;;;;;;4.65;2.95;;;;;;;;;;5036557;28;20070;-63
2023/08/20 03:20:17;;;;;;;5.68;2.90;;;;;;;;;;5019661;28;20336;-62
2023/08/20 03:22:43;;;;;;;4.95;2.80;;;;;;;;;;5035045;28;20500;-63
2023/08/20 03:25:08;;;;;;;4.93;2.85;;;;;;;;;;5018636;28;20021;-63
2023/08/20 03:27:34;;;;;;;5.50;2.78;;;;;;;;;;5018894;28;20079;-64
2023/08/20 03:29:59;;;;;;;4.78;3.40;;;;;;;;;;5018760;28;20029;-62
2023/08/20 03:32:25;;;;;;;4.20;2.67;;;;;;;;;;5018367;28;20128;-62
2023/08/20 03:34:50;;;;;;;5.13;2.80;;;;;;;;;;5018767;28;20061;-63
2023/08/20 03:37:16;;;;;;;3.75;2.75;;;;;;;;;;5018732;28;20095;-63
2023/08/20 03:39:42;;;;;;;3.25;2.70;;;;;;;;;;5019094;28;20025;-63
2023/08/20 03:42:07;;;;;;;4.35;2.83;;;;;;;;;;5018457;28;20346;-63
2023/08/20 03:44:32;;;;;;;4.55;2.70;;;;;;;;;;5036112;28;20540;-63
2023/08/20 03:46:58;;;;;;;4.93;2.42;;;;;;;;;;5018231;28;20515;-63
2023/08/20 03:49:24;;;;;;;3.83;2.53;;;;;;;;;;5002144;28;20361;-63
2023/08/20 03:51:49;;;;;;;5.28;2.80;;;;;;;;;;5017847;28;20029;-62
2023/08/20 03:54:15;;;;;;;3.88;2.38;;;;;;;;;;5018322;28;20033;-62
2023/08/20 03:56:40;;;;;;;4.93;2.80;;;;;;;;;;5035618;28;20112;-62
2023/08/20 03:59:06;;;;;;;4.60;2.58;;;;;;;;;;5018765;28;20022;-63
2023/08/20 04:01:32;;;;;;;4.30;2.38;;;;;;;;;;5017672;28;20483;-62
2023/08/20 04:03:57;;;;;;;6.40;2.67;;;;;;;;;;5018097;28;20033;-63
2023/08/20 04:06:23;;;;;;;4.45;2.83;;;;;;;;;;5017907;28;20017;-63
2023/08/20 04:08:48;;;;;;;3.72;2.80;;;;;;;;;;5017871;28;20033;-63
2023/08/20 04:11:14;;;;;;;3.85;2.33;;;;;;;;;;5017704;28;20033;-63
2023/08/20 04:13:42;;;;;;;4.07;2.50;;;;;;;;;;5018044;28;20452;-63
2023/08/20 04:16:10;;;;;;;3.92;2.50;;;;;;;;;;5017894;28;20087;-62
2023/08/20 04:18:36;;;;;;;3.75;2.30;;;;;;;;;;5017904;28;20026;-62
2023/08/20 04:21:01;;;;;;;5.38;2.70;;;;;;;;;;5017384;28;20026;-63
2023/08/20 04:23:26;;;;;;;3.25;2.38;;;;;;;;;;5017408;28;20057;-62
2023/08/20 04:25:52;;;;;;;3.40;2.50;;;;;;;;;;5017827;28;20028;-62
2023/08/20 04:28:18;;;;;;;3.55;2.40;;;;;;;;;;5017787;28;20043;-62
2023/08/20 04:30:43;;;;;;;4.22;2.60;;;;;;;;;;5017047;28;20468;-62
2023/08/20 04:33:09;;;;;;;4.28;2.53;;;;;;;;;;5035177;28;20047;-63
2023/08/20 04:35:35;;;;;;;4.03;2.30;;;;;;;;;;5017577;28;20025;-63
2023/08/20 04:38:01;;;;;;;4.07;2.50;;;;;;;;;;5017553;28;20086;-62
2023/08/20 04:40:26;;;;;;;4.25;2.47;;;;;;;;;;5000046;28;20412;-63
2023/08/20 04:42:52;;;;;;;3.58;2.47;;;;;;;;;;5017489;28;20022;-63
2023/08/20 04:45:19;;;;;;;4.50;2.65;;;;;;;;;;5017749;28;20022;-62
2023/08/20 04:47:46;;;;;;;3.92;2.53;;;;;;;;;;5033573;28;20102;-62
2023/08/20 04:50:11;;;;;;;4.78;2.30;;;;;;;;;;5016972;28;20112;-63
2023/08/20 04:52:37;;;;;;;4.72;2.50;;;;;;;;;;5017369;28;20034;-62
2023/08/20 04:55:03;;;;;;;4.35;2.67;;;;;;;;;;5017264;28;20018;-64
2023/08/20 04:57:28;;;;;;;3.53;2.50;;;;;;;;;;5017133;28;20112;-63
2023/08/20 04:59:54;;;;;;;3.88;2.30;;;;;;;;;;5016804;28;20029;-63
2023/08/20 05:02:20;;;;;;;4.00;2.22;;;;;;;;;;5016941;28;20037;-63
2023/08/20 05:04:45;;;;;;;4.95;2.55;;;;;;;;;;5016941;28;20124;-62
2023/08/20 05:07:11;;;;;;;3.75;2.40;;;;;;;;;;5017025;28;20051;-63
2023/08/20 05:09:36;;;;;;;3.85;2.30;;;;;;;;;;5000421;28;20033;-62
2023/08/20 05:12:02;;;;;;;4.10;2.50;;;;;;;;;;5016934;28;20083;-62
2023/08/20 05:14:29;;;;;;;4.60;2.75;;;;;;;;;;5033140;28;20064;-62
2023/08/20 05:16:55;;;;;;;3.28;2.30;;;;;;;;;;5034073;28;20028;-62
2023/08/20 05:19:20;;;;;;;4.90;2.40;;;;;;;;;;4999945;28;20037;-63
2023/08/20 05:21:46;;;;;;;4.88;2.60;;;;;;;;;;5032255;28;20060;-62
2023/08/20 05:24:11;;;;;;;3.45;2.28;;;;;;;;;;5016783;28;20112;-63
2023/08/20 05:26:37;;;;;;;3.08;2.30;;;;;;;;;;5016700;28;20017;-62
2023/08/20 05:29:02;;;;;;;4.63;2.80;;;;;;;;;;5016403;28;20047;-62
2023/08/20 05:31:28;;;;;;;4.13;2.40;;;;;;;;;;5016597;28;20460;-62
2023/08/20 05:33:53;;;;;;;3.67;2.33;;;;;;;;;;5032872;28;20028;-63
2023/08/20 05:36:19;;;;;;;3.70;2.50;;;;;;;;;;5016572;28;20460;-63
2023/08/20 05:38:44;;;;;;;3.50;2.30;;;;;;;;;;5016788;28;20033;-64
2023/08/20 05:41:10;;;;;;;3.70;2.50;;;;;;;;;;5015565;28;20036;-63
2023/08/20 05:43:38;;;;;;;8.63;2.40;;;;;;;;;;5016415;28;20349;-63
2023/08/20 05:46:04;;;;;;;6.47;2.30;;;;;;;;;;5016393;28;20255;-63
2023/08/20 05:48:29;;;;;;;3.90;2.30;;;;;;;;;;5015961;28;20033;-63
2023/08/20 05:50:55;;;;;;;3.67;2.35;;;;;;;;;;5032241;28;20075;-63
2023/08/20 05:53:22;;;;;;;3.20;2.20;;;;;;;;;;5016306;28;20017;-63
2023/08/20 05:55:47;;;;;;;3.75;2.50;;;;;;;;;;5032286;28;20014;-62
2023/08/20 05:58:13;;;;;;;4.05;2.50;;;;;;;;;;5015966;28;20087;-62
2023/08/20 06:00:38;;;;;;;4.13;2.67;;;;;;;;;;5015420;28;20025;-63
2023/08/20 06:03:04;;;;;;;3.92;2.55;;;;;;;;;;5032285;28;20104;-63
2023/08/20 06:05:29;;;;;;;4.20;2.25;;;;;;;;;;5016147;28;20341;-63
2023/08/20 06:07:55;;;;;;;3.22;2.28;;;;;;;;;;5016345;28;20022;-62
2023/08/20 06:10:21;;;;;;;2.45;2.03;;;;;;;;;;5015655;28;20034;-62
2023/08/20 06:12:47;;;;;;;5.63;2.50;;;;;;;;;;5016641;28;20022;-62
2023/08/20 06:15:12;;;;;;;3.28;2.25;;;;;;;;;;5015993;28;20528;-62
2023/08/20 06:17:37;;;;;;;4.32;2.58;;;;;;;;;;5015839;28;20029;-62
2023/08/20 06:20:07;;;;;;;4.57;2.50;;;;;;;;;;5015392;28;20072;-62
2023/08/20 06:22:33;;;;;;;3.50;2.40;;;;;;;;;;5016542;28;20030;-63
2023/08/20 06:24:58;;;;;;;4.30;2.53;;;;;;;;;;5015518;28;20353;-63
2023/08/20 06:27:23;;;;;;;3.05;2.08;;;;;;;;;;5015531;28;20059;-62
2023/08/20 06:29:49;;;;;;;3.72;2.30;;;;;;;;;;5015999;28;20384;-62
2023/08/20 06:32:15;;;;;;;3.85;2.13;;;;;;;;;;5016581;28;20091;-62
2023/08/20 06:34:40;;;;;;;4.65;2.40;;;;;;;;;;5019692;28;20460;-64
2023/08/20 06:37:06;;;;;;;4.22;2.63;;;;;;;;;;5019640;28;20084;-62
2023/08/20 06:39:31;;;;;;;5.32;2.78;;;;;;;;;;5019706;28;20061;-62
2023/08/20 06:41:57;;;;;;;6.35;2.75;;;;;;;;;;5019760;28;20025;-62
2023/08/20 06:44:22;;;;;;;5.43;2.50;;;;;;;;;;5019660;28;20092;-63
2023/08/20 06:46:48;;;;;;;4.72;2.72;;;;;;;;;;5019105;28;20029;-63
2023/08/20 06:49:13;;;;;;;5.57;2.70;;;;;;;;;;5019894;28;20072;-62
2023/08/20 06:51:39;;;;;;;6.00;2.70;;;;;;;;;;5019527;28;20052;-62
2023/08/20 06:54:06;;;;;;;4.50;2.30;;;;;;;;;;5019513;28;20021;-62
2023/08/20 06:56:31;;;;;;;4.82;2.38;;;;;;;;;;5018626;28;20067;-62
2023/08/20 06:58:57;;;;;;;4.32;2.58;;;;;;;;;;5019865;28;20025;-64
2023/08/20 07:01:22;;;;;;;5.25;2.53;;;;;;;;;;5019142;28;20033;-63
2023/08/20 07:03:48;;;;;;;4.03;2.50;;;;;;;;;;5018956;28;20114;-63
2023/08/20 07:06:18;;;;;;;3.55;2.13;;;;;;;;;;5034976;28;20041;-63
2023/08/20 07:08:43;;;;;;;4.45;2.40;;;;;;;;;;5019267;28;20199;-62
2023/08/20 07:11:09;;;;;;;4.95;2.30;;;;;;;;;;5019245;28;20468;-62
2023/08/20 07:13:34;;;;;;;5.70;2.42;;;;;;;;;;5018894;28;20040;-62
2023/08/20 07:16:00;;;;;;;4.85;2.35;;;;;;;;;;5018376;28;20026;-63
2023/08/20 07:18:25;;;;;;;4.00;2.33;;;;;;;;;;5007930;28;20021;-64
2023/08/20 07:20:52;;;;;;;3.97;2.33;;;;;;;;;;5018713;28;20035;-63
2023/08/20 07:23:17;;;;;;;5.13;2.35;;;;;;;;;;5018882;28;20375;-64
2023/08/20 07:25:44;;;;;;;4.97;2.30;;;;;;;;;;5018631;28;20021;-63
2023/08/20 07:28:10;;;;;;;5.70;2.25;;;;;;;;;;5034812;28;20021;-62
2023/08/20 07:30:38;;;;;;;5.53;2.30;;;;;;;;;;5035215;28;20124;-64
2023/08/20 07:33:04;;;;;;;5.55;2.47;;;;;;;;;;5018350;28;20112;-63
2023/08/20 07:35:29;;;;;;;3.50;2.13;;;;;;;;;;5018576;28;20026;-63
2023/08/20 07:37:55;;;;;;;4.30;2.00;;;;;;;;;;5018641;28;20029;-64
2023/08/20 07:40:20;;;;;;;6.18;2.42;;;;;;;;;;5018340;28;20033;-63
2023/08/20 07:42:46;;;;;;;4.18;2.22;;;;;;;;;;5017532;28;20391;-64
2023/08/20 07:45:11;;;;;;;5.07;2.50;;;;;;;;;;5021880;28;20017;-63
2023/08/20 07:47:37;;;;;;;4.03;2.20;;;;;;;;;;5037573;28;20032;-63
2023/08/20 07:50:03;;;;;;;4.28;2.30;;;;;;;;;;5021018;28;20158;-62
2023/08/20 07:52:28;;;;;;;4.32;2.22;;;;;;;;;;5055196;28;20021;-62
2023/08/20 07:54:54;;;;;;;4.63;2.05;;;;;;;;;;5037509;28;20085;-62
2023/08/20 07:57:20;;;;;;;4.32;2.30;;;;;;;;;;5037467;28;20028;-62
2023/08/20 07:59:45;;;;;;;3.97;2.35;;;;;;;;;;5037336;28;20069;-62
2023/08/20 08:02:11;;;;;;;5.82;2.42;;;;;;;;;;5038078;28;20096;-62
2023/08/20 08:04:36;;;;;;;6.43;2.30;;;;;;;;;;5037886;28;20353;-63
2023/08/20 08:07:02;;;;;;;4.13;2.30;;;;;;;;;;5037926;28;20032;-62
2023/08/20 08:09:28;;;;;;;4.30;2.35;;;;;;;;;;5037975;28;20020;-61
2023/08/20 08:11:54;;;;;;;4.00;2.08;;;;;;;;;;5037729;28;20052;-64
2023/08/20 08:14:19;;;;;;;3.55;2.28;;;;;;;;;;5037875;28;20064;-64
2023/08/20 08:16:46;;;;;;;4.28;2.47;;;;;;;;;;5055133;28;20017;-64
2023/08/20 08:19:11;;;;;;;4.22;2.35;;;;;;;;;;5037765;28;20037;-63
2023/08/20 08:21:37;;;;;;;5.70;2.35;;;;;;;;;;5037460;28;20059;-63
2023/08/20 08:24:03;;;;;;;6.03;2.50;;;;;;;;;;5020877;28;20383;-63
2023/08/20 08:26:28;;;;;;;6.45;2.65;;;;;;;;;;5038465;28;20025;-63
2023/08/20 08:28:55;;;;;;;3.90;2.20;;;;;;;;;;5053750;28;20502;-63
2023/08/20 08:31:20;;;;;;;3.92;2.40;;;;;;;;;;5055098;28;20103;-63
2023/08/20 08:33:46;;;;;;;4.97;2.50;;;;;;;;;;5053838;28;20044;-63
2023/08/20 08:36:11;;;;;;;5.13;2.17;;;;;;;;;;5037035;28;20028;-63
2023/08/20 08:38:37;;;;;;;4.70;2.20;;;;;;;;;;5037376;28;20422;-63
2023/08/20 08:41:09;;;;;;;6.45;2.70;;;;;;;;;;5037632;28;20036;-62
2023/08/20 08:43:34;;;;;;;5.75;2.53;;;;;;;;;;5020794;28;20092;-63
2023/08/20 08:46:01;;;;;;;4.82;2.40;;;;;;;;;;5053408;28;20063;-63
2023/08/20 08:48:27;;;;;;;4.35;2.42;;;;;;;;;;5037115;28;20463;-63
2023/08/20 08:50:53;;;;;;;5.22;2.13;;;;;;;;;;5037153;28;20098;-63
2023/08/20 08:53:18;;;;;;;5.82;2.55;;;;;;;;;;5036820;28;20475;-63
2023/08/20 08:55:44;;;;;;;4.57;2.30;;;;;;;;;;5036184;28;20033;-63
2023/08/20 08:58:09;;;;;;;4.60;2.33;;;;;;;;;;5036776;28;20021;-62
2023/08/20 09:00:35;;;;;;;4.45;2.38;;;;;;;;;;5036652;28;20106;-62
2023/08/20 09:03:00;;;;;;;4.20;2.08;;;;;;;;;;5036931;28;20036;-62
2023/08/20 09:05:26;;;;;;;5.57;2.78;;;;;;;;;;5036771;28;20028;-62
2023/08/20 09:07:57;;;;;;;4.80;2.40;;;;;;;;;;5036802;28;20021;-62
2023/08/20 09:10:25;;;;;;;4.82;2.22;;;;;;;;;;5036750;28;20029;-62
2023/08/20 09:12:53;;;;;;;5.05;2.30;;;;;;;;;;5036677;28;20021;-63
2023/08/20 09:15:19;;;;;;;4.15;2.08;;;;;;;;;;5020037;28;20025;-62
2023/08/20 09:17:46;;;;;;;4.57;2.40;;;;;;;;;;5053143;28;20039;-63
2023/08/20 09:20:11;;;;;;;5.30;2.40;;;;;;;;;;5052953;28;20021;-63
2023/08/20 09:22:40;;;;;;;5.65;2.42;;;;;;;;;;5036830;28;20032;-62
2023/08/20 09:25:05;;;;;;;4.35;2.38;;;;;;;;;;5053668;28;20029;-62
2023/08/20 09:27:38;;;;;;;3.80;2.20;;;;;;;;;;5036515;28;20357;-62
2023/08/20 09:30:03;;;;;;;6.40;2.17;;;;;;;;;;5036779;28;20029;-62
2023/08/20 09:32:29;;;;;;;6.70;2.65;;;;;;;;;;5035768;28;20101;-62
2023/08/20 09:34:55;;;;;;;4.28;2.30;;;;;;;;;;5015799;28;20044;-62
2023/08/20 09:37:21;;;;;;;4.30;2.42;;;;;;;;;;5015620;28;20032;-63
2023/08/20 09:39:47;;;;;;;4.55;2.45;;;;;;;;;;5032340;28;20040;-63
2023/08/20 09:42:13;;;;;;;4.00;2.30;;;;;;;;;;5015677;28;20120;-63
2023/08/20 09:44:39;;;;;;;6.10;2.45;;;;;;;;;;5032384;28;20021;-64
2023/08/20 09:47:14;;;;;;;5.78;2.70;;;;;;;;;;5030716;28;20033;-62
2023/08/20 09:49:44;;;;;;;4.10;2.20;;;;;;;;;;5030577;28;20042;-62
2023/08/20 09:52:12;;;;;;;3.92;2.10;;;;;;;;;;5030468;28;20053;-62
2023/08/20 09:54:43;;;;;;;4.25;2.47;;;;;;;;;;4997708;28;20040;-63
2023/08/20 09:57:12;;;;;;;4.43;2.30;;;;;;;;;;5013482;28;20017;-61
2023/08/20 09:59:39;;;;;;;5.68;2.70;;;;;;;;;;4996582;28;20045;-62
2023/08/20 10:02:04;;;;;;;3.85;2.17;;;;;;;;;;4997548;28;20036;-62
2023/08/20 10:04:30;;;;;;;12.40;2.35;;;;;;;;;;5013253;28;20537;-69
2023/08/20 10:06:58;;;;;;;7.93;2.35;;;;;;;;;;5025412;28;20030;-63
2023/08/20 10:09:24;;;;;;;4.53;2.50;;;;;;;;;;5017775;28;20068;-62
2023/08/20 10:11:49;;;;;;;4.95;2.75;;;;;;;;;;5031876;28;20057;-65
2023/08/20 10:14:15;;;;;;;6.78;2.55;;;;;;;;;;5015884;28;20079;-63
2023/08/20 10:16:40;;;;;;;5.43;2.53;;;;;;;;;;5031419;28;20025;-63
2023/08/20 10:19:06;;;;;;;5.72;2.58;;;;;;;;;;5015850;28;20460;-63
2023/08/20 10:21:32;;;;;;;5.63;2.60;;;;;;;;;;5014827;28;20041;-64
2023/08/20 10:24:02;;;;;;;4.28;2.53;;;;;;;;;;4999235;28;20037;-63
2023/08/20 10:26:28;;;;;;;5.57;2.38;;;;;;;;;;5015942;28;20529;-65
2023/08/20 10:29:13;;;;;;;3.40;2.05;;;;;;;;;;5015980;28;20025;-65
2023/08/20 10:31:45;;;;;;;5.00;2.58;;;;;;;;;;5015320;28;20036;-64
2023/08/20 10:34:11;;;;;;;4.80;2.53;;;;;;;;;;5015991;28;20082;-63
2023/08/20 10:36:41;;;;;;;3.75;1.95;;;;;;;;;;5016183;28;20033;-64
2023/08/20 10:39:19;;;;;;;3.58;1.90;;;;;;;;;;5015388;28;20033;-62
2023/08/20 10:41:45;;;;;;;3.90;2.00;;;;;;;;;;5034806;28;20041;-62
2023/08/20 10:44:10;;;;;;;5.78;2.33;;;;;;;;;;5015291;28;20025;-62
2023/08/20 10:46:49;;;;;;;4.10;2.00;;;;;;;;;;5015907;28;20143;-63
2023/08/20 10:49:16;;;;;;;5.03;2.20;;;;;;;;;;5015495;28;20029;-63
2023/08/20 10:51:43;;;;;;;4.88;2.35;;;;;;;;;;5015210;28;20071;-63
2023/08/20 10:54:10;;;;;;;3.45;2.25;;;;;;;;;;5015668;28;20100;-63
2023/08/20 10:56:38;;;;;;;4.85;2.17;;;;;;;;;;5015443;28;20037;-63
2023/08/20 10:59:08;;;;;;;4.40;1.90;;;;;;;;;;5015705;28;20025;-63
2023/08/20 11:01:34;;;;;;;4.35;1.98;;;;;;;;;;5013865;28;20384;-63
2023/08/20 11:04:04;;;;;;;3.85;1.77;;;;;;;;;;5015069;28;20037;-62
2023/08/20 11:06:33;;;;;;;4.35;1.80;;;;;;;;;;5031622;28;20025;-62
2023/08/20 11:08:59;;;;;;;6.63;2.65;;;;;;;;;;5015634;28;20120;-63
2023/08/20 11:11:25;;;;;;;5.22;2.17;;;;;;;;;;5014686;28;20506;-63
2023/08/20 11:13:50;;;;;;;4.70;2.13;;;;;;;;;;5015364;28;20456;-63
2023/08/20 11:16:16;;;;;;;6.03;2.10;;;;;;;;;;5015496;28;20086;-63
2023/08/20 11:18:42;;;;;;;5.63;2.30;;;;;;;;;;5015312;28;20049;-65
2023/08/20 11:21:08;;;;;;;6.10;2.13;;;;;;;;;;5018228;28;20034;-63
2023/08/20 11:23:34;;;;;;;4.45;2.00;;;;;;;;;;5018928;28;20028;-63
2023/08/20 11:26:00;;;;;;;3.85;2.30;;;;;;;;;;5018863;28;20078;-63
2023/08/20 11:28:27;;;;;;;2.97;1.92;;;;;;;;;;5018895;28;20025;-63
2023/08/20 11:30:53;;;;;;;6.55;2.60;;;;;;;;;;5035727;28;20025;-62
2023/08/20 11:33:18;;;;;;;6.13;2.58;;;;;;;;;;5018808;28;20368;-62
2023/08/20 11:35:44;;;;;;;5.38;2.30;;;;;;;;;;5018797;28;20025;-62
2023/08/20 11:38:10;;;;;;;5.05;2.20;;;;;;;;;;5019538;28;20052;-63
2023/08/20 11:40:36;;;;;;;4.13;2.13;;;;;;;;;;5016890;28;20472;-62
2023/08/20 11:43:02;;;;;;;4.68;2.08;;;;;;;;;;5018630;28;20032;-62
2023/08/20 11:45:27;;;;;;;5.57;2.15;;;;;;;;;;5018548;28;20021;-64
2023/08/20 11:48:00;;;;;;;5.50;2.30;;;;;;;;;;5017956;28;20033;-63
2023/08/20 11:50:25;;;;;;;4.78;2.83;;;;;;;;;;5034652;28;20095;-62
2023/08/20 11:52:52;;;;;;;6.13;3.10;;;;;;;;;;5018471;28;20026;-62
2023/08/20 11:55:24;;;;;;;5.60;3.03;;;;;;;;;;5018490;28;20033;-62
2023/08/20 11:57:50;;;;;;;4.83;3.23;;;;;;;;;;5017940;28;20345;-63
2023/08/20 12:00:23;;;;;;;6.50;2.80;;;;;;;;;;5034011;28;20087;-62
2023/08/20 12:02:49;;;;;;;;;;;;;;;;;;5000488;28;20021;-63
2023/08/20 12:05:19;;;;;;;5.72;3.25;;;;;;;;;;5016184;28;20359;-63
2023/08/20 12:07:54;;;;;;;5.55;3.00;;;;;;;;;;5015757;28;20530;-62
2023/08/20 12:10:21;;;;;;;4.80;2.88;;;;;;;;;;5015689;28;20536;-64
2023/08/20 12:12:48;;;;;;;5.18;2.75;;;;;;;;;;5031342;28;20048;-65
2023/08/20 12:15:13;;;;;;;5.00;2.97;;;;;;;;;;4999883;28;20464;-64
2023/08/20 12:17:39;;;;;;;4.95;2.72;;;;;;;;;;5017266;28;20071;-62
2023/08/20 12:20:12;;;;;;;5.25;2.60;;;;;;;;;;5017737;28;20038;-61
2023/08/20 12:22:40;;;;;;;5.13;2.70;;;;;;;;;;5017028;28;20469;-62
2023/08/20 12:25:06;;;;;;;4.97;2.47;;;;;;;;;;5034015;28;20026;-61
2023/08/20 12:27:32;;;;;;;5.70;2.33;;;;;;;;;;5018277;28;20052;-62
2023/08/20 12:29:58;;;;;;;5.50;2.75;;;;;;;;;;5017513;28;20061;-62
2023/08/20 12:32:23;;;;;;;4.78;2.45;;;;;;;;;;5017847;28;20045;-62
2023/08/20 12:34:49;;;;;;;4.80;2.38;;;;;;;;;;5017721;28;20103;-63
2023/08/20 12:37:14;;;;;;;4.75;2.35;;;;;;;;;;5017534;28;20128;-62
2023/08/20 12:39:43;;;;;;;4.25;2.35;;;;;;;;;;5017536;28;20029;-63
2023/08/20 12:42:09;;;;;;;4.32;2.58;;;;;;;;;;5017300;28;20480;-63
2023/08/20 12:44:34;;;;;;;3.97;2.45;;;;;;;;;;5017008;28;20037;-63
2023/08/20 12:46:59;;;;;;;3.67;2.45;;;;;;;;;;5015462;28;20091;-61
2023/08/20 12:49:25;;;;;;;5.85;2.60;;;;;;;;;;5016078;28;20029;-63
2023/08/20 12:51:50;;;;;;;3.15;2.03;;;;;;;;;;5017311;28;20087;-62
2023/08/20 12:54:16;;;;;;;4.07;2.15;;;;;;;;;;5017309;28;20111;-62
2023/08/20 12:56:42;;;;;;;3.83;2.17;;;;;;;;;;5033572;28;20373;-62
2023/08/20 12:59:08;;;;;;;4.03;2.38;;;;;;;;;;5017204;28;20139;-62
2023/08/20 13:01:33;;;;;;;5.57;2.50;;;;;;;;;;5016806;28;20026;-62
2023/08/20 13:03:59;;;;;;;4.03;2.03;;;;;;;;;;5016786;28;20037;-63
2023/08/20 13:06:25;;;;;;;4.50;2.20;;;;;;;;;;5017114;28;20133;-63
2023/08/20 13:08:50;;;;;;;3.72;2.60;;;;;;;;;;5016980;28;20108;-62
2023/08/20 13:11:17;;;;;;;6.15;2.42;;;;;;;;;;5016906;28;20029;-62
2023/08/20 13:13:43;;;;;;;4.88;2.10;;;;;;;;;;5000346;28;20107;-62
2023/08/20 13:16:09;;;;;;;4.85;2.45;;;;;;;;;;5017328;28;20088;-62
2023/08/20 13:18:34;;;;;;;5.18;2.40;;;;;;;;;;5016907;28;20026;-62
2023/08/20 13:21:01;;;;;;;4.13;2.05;;;;;;;;;;5016645;28;20472;-62
2023/08/20 13:23:26;;;;;;;5.05;2.53;;;;;;;;;;5016563;28;20029;-63
2023/08/20 13:25:52;;;;;;;4.22;2.50;;;;;;;;;;5016716;28;20032;-62
2023/08/20 13:28:18;;;;;;;3.53;2.00;;;;;;;;;;5016723;28;20116;-62
2023/08/20 13:30:43;;;;;;;4.35;2.20;;;;;;;;;;5016647;28;20029;-62
2023/08/20 13:33:09;;;;;;;4.65;2.13;;;;;;;;;;5016566;28;20029;-62
2023/08/20 13:35:34;;;;;;;4.00;2.10;;;;;;;;;;5016590;28;20029;-62
2023/08/20 13:38:00;;;;;;;3.05;1.70;;;;;;;;;;5016685;28;20021;-62
2023/08/20 13:40:25;;;;;;;3.65;2.10;;;;;;;;;;5032451;28;20423;-62
2023/08/20 13:42:51;;;;;;;4.25;2.25;;;;;;;;;;5016423;28;20021;-62
2023/08/20 13:45:16;;;;;;;4.38;2.13;;;;;;;;;;5016467;28;20369;-63
2023/08/20 13:47:44;;;;;;;3.30;2.00;;;;;;;;;;5016417;28;20021;-62
2023/08/20 13:50:10;;;;;;;4.63;2.20;;;;;;;;;;5016394;28;20036;-62
2023/08/20 13:52:35;;;;;;;4.68;2.30;;;;;;;;;;5016317;28;20025;-62
2023/08/20 13:55:01;;;;;;;3.05;2.30;;;;;;;;;;5016250;28;20024;-62
2023/08/20 13:57:26;;;;;;;3.78;2.40;;;;;;;;;;5016309;28;20579;-61
2023/08/20 13:59:52;;;;;;;5.05;2.10;;;;;;;;;;5016231;28;20082;-61
2023/08/20 14:02:17;;;;;;;3.97;2.10;;;;;;;;;;5016449;28;20049;-61
2023/08/20 14:04:43;;;;;;;5.00;2.15;;;;;;;;;;5016145;28;20452;-62
2023/08/20 14:07:08;;;;;;;5.18;2.55;;;;;;;;;;5032451;28;20156;-63
2023/08/20 14:09:35;;;;;;;5.88;2.20;;;;;;;;;;5015841;28;20017;-62
2023/08/20 14:12:02;;;;;;;4.68;2.17;;;;;;;;;;5032512;28;20022;-62
2023/08/20 14:14:27;;;;;;;4.53;2.05;;;;;;;;;;5016087;28;20031;-62
2023/08/20 14:16:53;;;;;;;4.40;2.28;;;;;;;;;;5015967;28;20030;-62
2023/08/20 14:19:18;;;;;;;4.28;2.22;;;;;;;;;;5016083;28;20376;-61
2023/08/20 14:21:44;;;;;;;3.83;2.20;;;;;;;;;;5015764;28;20036;-61
2023/08/20 14:24:09;;;;;;;3.30;2.30;;;;;;;;;;5032300;28;20025;-62
2023/08/20 14:26:35;;;;;;;5.60;2.30;;;;;;;;;;5015916;28;20480;-62
2023/08/20 14:29:01;;;;;;;4.95;2.38;;;;;;;;;;5031974;28;20028;-62
2023/08/20 14:31:27;;;;;;;6.35;2.47;;;;;;;;;;5015937;28;20097;-62
2023/08/20 14:33:52;;;;;;;3.75;2.42;;;;;;;;;;5015854;28;20022;-63
2023/08/20 14:36:18;;;;;;;4.57;2.42;;;;;;;;;;5015889;28;20375;-62
2023/08/20 14:38:43;;;;;;;5.32;2.58;;;;;;;;;;5015766;28;20048;-62